Isabel Y Andres — EA2246 — position and weather

sailwx.info

Track history (hours):
 
Tides and Currents Weather Stations Pressure Air Temp Water Temp Dewpoint Dewpoint Depression Visibility Wind Speed Wind Dir Waves Ship Positions

Isabel Y Andres

Last reported at 2017-Oct-18 15:36 UTC. Time now 2017-Oct-19 00:26 UTC.
Position N 37°49' W 000°45'.

Length 22 m.

Type: Other ship. MMSI: 224088940.

Date/timePositionNaut miles runAvg speedWind from/ knotsBaromVisibWave heightAir tempDewpointWater temp
2017-Oct-18 15:36N 37°49' W 000°45'0 0.1
2017-Oct-18 15:30N 37°49' W 000°45'0 0.1
2017-Oct-18 15:00N 37°49' W 000°45'10 9.7
2017-Oct-18 14:00N 37°42' W 000°37'5 9.9
2017-Oct-18 13:30N 37°38' W 000°33'5 9.4
2017-Oct-18 13:00N 37°35' W 000°29'1 2.4
2017-Oct-18 12:30N 37°34' W 000°28'6 1.0
2017-Oct-18 06:31N 37°36' W 000°20'0 2.9
2017-Oct-18 06:23N 37°36' W 000°21'1 2.9
2017-Oct-18 06:00N 37°35' W 000°22'2 3.3
2017-Oct-18 05:15N 37°35' W 000°25'1 4.2
2017-Oct-18 05:00N 37°35' W 000°26'510.0
2017-Oct-18 04:30N 37°38' W 000°31'510.0
2017-Oct-18 04:00N 37°42' W 000°36'510.3
2017-Oct-18 03:30N 37°46' W 000°40'510.1
2017-Oct-18 03:00N 37°49' W 000°45'0 0.0
2017-Oct-17 16:42N 37°49' W 000°45'0 0.0
2017-Oct-17 16:30N 37°49' W 000°45'0 0.0
2017-Oct-17 16:00N 37°49' W 000°45'0 0.0
2017-Oct-17 15:30N 37°49' W 000°45'0 0.4
2017-Oct-17 15:00N 37°49' W 000°45'510.2
2017-Oct-17 14:30N 37°45' W 000°41'510.0
2017-Oct-17 14:00N 37°42' W 000°37'510.4
2017-Oct-17 13:30N 37°38' W 000°32'7 0.9
2017-Oct-17 05:38N 37°35' W 000°24'1 4.6
2017-Oct-17 05:30N 37°35' W 000°25'2 3.8
2017-Oct-17 05:00N 37°35' W 000°27'5 9.9
2017-Oct-17 04:30N 37°39' W 000°31'5 9.8
2017-Oct-17 04:00N 37°42' W 000°36'510.0
2017-Oct-17 03:30N 37°45' W 000°40'510.2
2017-Oct-17 03:00N 37°49' W 000°45'0 0.0
2017-Oct-16 15:24N 37°49' W 000°45'0 0.8
2017-Oct-16 15:00N 37°49' W 000°45'5 9.9
2017-Oct-16 14:30N 37°46' W 000°40'1010.2
2017-Oct-16 13:30N 37°38' W 000°32'7 0.9
2017-Oct-16 05:37N 37°35' W 000°24'0 1.8
2017-Oct-16 05:28N 37°35' W 000°25'3 5.5
2017-Oct-16 05:00N 37°36' W 000°28'5 9.6
2017-Oct-16 04:29N 37°39' W 000°32'5 9.6
2017-Oct-16 04:00N 37°42' W 000°36'5 9.8
2017-Oct-16 03:31N 37°46' W 000°41'5 9.8
2017-Oct-16 03:00N 37°49' W 000°45'  
2017-Oct-13 15:09N 37°49' W 000°45'0 0.0
2017-Oct-13 15:00N 37°49' W 000°45'3 6.5
2017-Oct-13 14:30N 37°47' W 000°43'510.4
2017-Oct-13 14:00N 37°43' W 000°38'510.8
2017-Oct-13 13:30N 37°39' W 000°33'15 2.9
2017-Oct-13 08:34N 37°37' W 000°15'0 2.9
2017-Oct-13 08:30N 37°37' W 000°15'2 2.9
2017-Oct-13 07:58N 37°36' W 000°17'2 2.9
2017-Oct-13 07:16N 37°36' W 000°20'1 2.9
2017-Oct-13 06:56N 37°36' W 000°21'2 2.9
2017-Oct-13 06:18N 37°35' W 000°23'1 2.9
2017-Oct-13 06:00N 37°35' W 000°24'2 2.6
2017-Oct-13 05:18N 37°35' W 000°26'4 6.3
2017-Oct-13 04:42N 37°37' W 000°30'210.0
2017-Oct-13 04:30N 37°38' W 000°32'5 9.9
2017-Oct-13 04:00N 37°42' W 000°36'5 9.9
2017-Oct-13 03:30N 37°45' W 000°41'510.2
2017-Oct-13 03:00N 37°49' W 000°45'  
2017-Oct-10 14:51N 37°49' W 000°45'6 6.7
2017-Oct-10 14:00N 37°45' W 000°40'510.2
2017-Oct-10 13:30N 37°42' W 000°35'510.3
2017-Oct-10 13:00N 37°38' W 000°31'11 2.0
2017-Oct-10 07:47N 37°36' W 000°18'1 2.9
2017-Oct-10 07:30N 37°36' W 000°19'1 2.9
2017-Oct-10 07:00N 37°36' W 000°21'1 2.9
2017-Oct-10 06:30N 37°35' W 000°22'1 2.9
2017-Oct-10 06:00N 37°35' W 000°24'1 2.8
2017-Oct-10 05:30N 37°35' W 000°26'2 3.8
2017-Oct-10 05:00N 37°35' W 000°28'5 9.6
2017-Oct-10 04:30N 37°38' W 000°32'5 9.9
2017-Oct-10 04:00N 37°42' W 000°36'5 9.9
2017-Oct-10 03:30N 37°45' W 000°41'510.1
2017-Oct-10 03:00N 37°49' W 000°45'0 0.0
2017-Oct-09 15:05N 37°49' W 000°45'0 0.1
2017-Oct-09 15:01N 37°49' W 000°45'1 1.7
2017-Oct-09 14:30N 37°49' W 000°45'510.1
2017-Oct-09 14:01N 37°45' W 000°40'510.3
2017-Oct-09 13:31N 37°42' W 000°35'510.3
2017-Oct-09 13:00N 37°38' W 000°30'10 1.8
2017-Oct-09 07:35N 37°36' W 000°18'0 2.9
2017-Oct-09 07:25N 37°36' W 000°19'1 2.9
2017-Oct-09 06:59N 37°36' W 000°21'2 2.9
2017-Oct-09 06:28N 37°35' W 000°23'1 2.9
2017-Oct-09 06:00N 37°35' W 000°24'1 2.7
2017-Oct-09 05:31N 37°35' W 000°26'3 4.6
2017-Oct-09 04:55N 37°35' W 000°29'4 9.8
2017-Oct-09 04:31N 37°38' W 000°32'5 9.8
2017-Oct-09 04:01N 37°42' W 000°37'5 9.9
2017-Oct-09 03:30N 37°46' W 000°41'5 9.9
2017-Oct-09 03:01N 37°49' W 000°45'  
Track history (hours):
 
Tides and Currents Weather Stations Pressure Air Temp Water Temp Dewpoint Dewpoint Depression Visibility Wind Speed Wind Dir Waves Ship Positions

Isabel Y Andres

Last reported at 2017-Oct-18 15:36 UTC. Time now 2017-Oct-19 00:26 UTC.
Position N 37°49' W 000°45'.

Length 22 m.

Type: Other ship. MMSI: 224088940.

Date/timePositionNaut miles runAvg speedWind from/ knotsBaromVisibWave heightAir tempDewpointWater temp
2017-Oct-18 15:36N 37°49' W 000°45'0 0.1
2017-Oct-18 15:30N 37°49' W 000°45'0 0.1
2017-Oct-18 15:00N 37°49' W 000°45'10 9.7
2017-Oct-18 14:00N 37°42' W 000°37'5 9.9
2017-Oct-18 13:30N 37°38' W 000°33'5 9.4
2017-Oct-18 13:00N 37°35' W 000°29'1 2.4
2017-Oct-18 12:30N 37°34' W 000°28'6 1.0
2017-Oct-18 06:31N 37°36' W 000°20'0 2.9
2017-Oct-18 06:23N 37°36' W 000°21'1 2.9
2017-Oct-18 06:00N 37°35' W 000°22'2 3.3
2017-Oct-18 05:15N 37°35' W 000°25'1 4.2
2017-Oct-18 05:00N 37°35' W 000°26'510.0
2017-Oct-18 04:30N 37°38' W 000°31'510.0
2017-Oct-18 04:00N 37°42' W 000°36'510.3
2017-Oct-18 03:30N 37°46' W 000°40'510.1
2017-Oct-18 03:00N 37°49' W 000°45'0 0.0
2017-Oct-17 16:42N 37°49' W 000°45'0 0.0
2017-Oct-17 16:30N 37°49' W 000°45'0 0.0
2017-Oct-17 16:00N 37°49' W 000°45'0 0.0
2017-Oct-17 15:30N 37°49' W 000°45'0 0.4
2017-Oct-17 15:00N 37°49' W 000°45'510.2
2017-Oct-17 14:30N 37°45' W 000°41'510.0
2017-Oct-17 14:00N 37°42' W 000°37'510.4
2017-Oct-17 13:30N 37°38' W 000°32'7 0.9
2017-Oct-17 05:38N 37°35' W 000°24'1 4.6
2017-Oct-17 05:30N 37°35' W 000°25'2 3.8
2017-Oct-17 05:00N 37°35' W 000°27'5 9.9
2017-Oct-17 04:30N 37°39' W 000°31'5 9.8
2017-Oct-17 04:00N 37°42' W 000°36'510.0
2017-Oct-17 03:30N 37°45' W 000°40'510.2
2017-Oct-17 03:00N 37°49' W 000°45'0 0.0
2017-Oct-16 15:24N 37°49' W 000°45'0 0.8
2017-Oct-16 15:00N 37°49' W 000°45'5 9.9
2017-Oct-16 14:30N 37°46' W 000°40'1010.2
2017-Oct-16 13:30N 37°38' W 000°32'7 0.9
2017-Oct-16 05:37N 37°35' W 000°24'0 1.8
2017-Oct-16 05:28N 37°35' W 000°25'3 5.5
2017-Oct-16 05:00N 37°36' W 000°28'5 9.6
2017-Oct-16 04:29N 37°39' W 000°32'5 9.6
2017-Oct-16 04:00N 37°42' W 000°36'5 9.8
2017-Oct-16 03:31N 37°46' W 000°41'5 9.8
2017-Oct-16 03:00N 37°49' W 000°45'  
2017-Oct-13 15:09N 37°49' W 000°45'0 0.0
2017-Oct-13 15:00N 37°49' W 000°45'3 6.5
2017-Oct-13 14:30N 37°47' W 000°43'510.4
2017-Oct-13 14:00N 37°43' W 000°38'510.8
2017-Oct-13 13:30N 37°39' W 000°33'15 2.9
2017-Oct-13 08:34N 37°37' W 000°15'0 2.9
2017-Oct-13 08:30N 37°37' W 000°15'2 2.9
2017-Oct-13 07:58N 37°36' W 000°17'2 2.9
2017-Oct-13 07:16N 37°36' W 000°20'1 2.9
2017-Oct-13 06:56N 37°36' W 000°21'2 2.9
2017-Oct-13 06:18N 37°35' W 000°23'1 2.9
2017-Oct-13 06:00N 37°35' W 000°24'2 2.6
2017-Oct-13 05:18N 37°35' W 000°26'4 6.3
2017-Oct-13 04:42N 37°37' W 000°30'210.0
2017-Oct-13 04:30N 37°38' W 000°32'5 9.9
2017-Oct-13 04:00N 37°42' W 000°36'5 9.9
2017-Oct-13 03:30N 37°45' W 000°41'510.2
2017-Oct-13 03:00N 37°49' W 000°45'  
2017-Oct-10 14:51N 37°49' W 000°45'6 6.7
2017-Oct-10 14:00N 37°45' W 000°40'510.2
2017-Oct-10 13:30N 37°42' W 000°35'510.3
2017-Oct-10 13:00N 37°38' W 000°31'11 2.0
2017-Oct-10 07:47N 37°36' W 000°18'1 2.9
2017-Oct-10 07:30N 37°36' W 000°19'1 2.9
2017-Oct-10 07:00N 37°36' W 000°21'1 2.9
2017-Oct-10 06:30N 37°35' W 000°22'1 2.9
2017-Oct-10 06:00N 37°35' W 000°24'1 2.8
2017-Oct-10 05:30N 37°35' W 000°26'2 3.8
2017-Oct-10 05:00N 37°35' W 000°28'5 9.6
2017-Oct-10 04:30N 37°38' W 000°32'5 9.9
2017-Oct-10 04:00N 37°42' W 000°36'5 9.9
2017-Oct-10 03:30N 37°45' W 000°41'510.1
2017-Oct-10 03:00N 37°49' W 000°45'0 0.0
2017-Oct-09 15:05N 37°49' W 000°45'0 0.1
2017-Oct-09 15:01N 37°49' W 000°45'1 1.7
2017-Oct-09 14:30N 37°49' W 000°45'510.1
2017-Oct-09 14:01N 37°45' W 000°40'510.3
2017-Oct-09 13:31N 37°42' W 000°35'510.3
2017-Oct-09 13:00N 37°38' W 000°30'10 1.8
2017-Oct-09 07:35N 37°36' W 000°18'0 2.9
2017-Oct-09 07:25N 37°36' W 000°19'1 2.9
2017-Oct-09 06:59N 37°36' W 000°21'2 2.9
2017-Oct-09 06:28N 37°35' W 000°23'1 2.9
2017-Oct-09 06:00N 37°35' W 000°24'1 2.7
2017-Oct-09 05:31N 37°35' W 000°26'3 4.6
2017-Oct-09 04:55N 37°35' W 000°29'4 9.8
2017-Oct-09 04:31N 37°38' W 000°32'5 9.8
2017-Oct-09 04:01N 37°42' W 000°37'5 9.9
2017-Oct-09 03:30N 37°46' W 000°41'5 9.9
2017-Oct-09 03:01N 37°49' W 000°45'  

Dump ship's entire track history